sensor_id;sensor_type;location;lat;lon;timestamp;temperature;humidity
18408;DHT22;9330;52.210;21.174;2023-03-21T00:02:10;8.10;99.90
18408;DHT22;9330;52.210;21.174;2023-03-21T00:04:37;8.20;99.90
18408;DHT22;9330;52.210;21.174;2023-03-21T00:07:04;8.20;99.90
18408;DHT22;9330;52.210;21.174;2023-03-21T00:09:31;8.10;99.90
18408;DHT22;9330;52.210;21.174;2023-03-21T00:11:58;8.20;99.90
18408;DHT22;9330;52.210;21.174;2023-03-21T00:14:26;8.20;99.90
18408;DHT22;9330;52.210;21.174;2023-03-21T00:16:57;8.30;99.90
18408;DHT22;9330;52.210;21.174;2023-03-21T00:19:24;8.20;99.90
18408;DHT22;9330;52.210;21.174;2023-03-21T00:21:53;8.20;99.90
18408;DHT22;9330;52.210;21.174;2023-03-21T00:24:20;8.30;99.90
18408;DHT22;9330;52.210;21.174;2023-03-21T00:26:48;8.20;99.90
18408;DHT22;9330;52.210;21.174;2023-03-21T00:29:15;8.20;99.90
18408;DHT22;9330;52.210;21.174;2023-03-21T00:31:42;8.20;99.90
18408;DHT22;9330;52.210;21.174;2023-03-21T00:34:10;8.30;99.90
18408;DHT22;9330;52.210;21.174;2023-03-21T00:36:37;8.20;99.90
18408;DHT22;9330;52.210;21.174;2023-03-21T00:39:04;8.20;99.90
18408;DHT22;9330;52.210;21.174;2023-03-21T00:41:31;8.20;99.90
18408;DHT22;9330;52.210;21.174;2023-03-21T00:43:58;8.20;99.90
18408;DHT22;9330;52.210;21.174;2023-03-21T00:46:26;8.20;99.90
18408;DHT22;9330;52.210;21.174;2023-03-21T00:48:52;8.20;99.90
18408;DHT22;9330;52.210;21.174;2023-03-21T00:51:23;8.20;99.90
18408;DHT22;9330;52.210;21.174;2023-03-21T00:53:53;8.30;99.90
18408;DHT22;9330;52.210;21.174;2023-03-21T00:56:20;8.30;99.90
18408;DHT22;9330;52.210;21.174;2023-03-21T00:58:47;8.20;99.90
18408;DHT22;9330;52.210;21.174;2023-03-21T01:01:14;8.20;99.90
18408;DHT22;9330;52.210;21.174;2023-03-21T01:03:41;8.20;99.90
18408;DHT22;9330;52.210;21.174;2023-03-21T01:06:16;8.30;99.90
18408;DHT22;9330;52.210;21.174;2023-03-21T01:08:46;8.20;99.90
18408;DHT22;9330;52.210;21.174;2023-03-21T01:11:16;8.20;99.90
18408;DHT22;9330;52.210;21.174;2023-03-21T01:13:45;8.20;99.90
18408;DHT22;9330;52.210;21.174;2023-03-21T01:16:12;8.20;99.90
18408;DHT22;9330;52.210;21.174;2023-03-21T01:18:39;8.20;99.90
18408;DHT22;9330;52.210;21.174;2023-03-21T01:21:09;8.20;99.90
18408;DHT22;9330;52.210;21.174;2023-03-21T01:23:37;8.20;99.90
18408;DHT22;9330;52.210;21.174;2023-03-21T01:26:08;8.20;99.90
18408;DHT22;9330;52.210;21.174;2023-03-21T01:28:37;8.10;99.90
18408;DHT22;9330;52.210;21.174;2023-03-21T01:31:05;8.30;99.90
18408;DHT22;9330;52.210;21.174;2023-03-21T01:33:33;8.20;99.90
18408;DHT22;9330;52.210;21.174;2023-03-21T01:36:00;8.20;99.90
18408;DHT22;9330;52.210;21.174;2023-03-21T01:38:28;8.20;99.90
18408;DHT22;9330;52.210;21.174;2023-03-21T01:40:55;8.10;99.90
18408;DHT22;9330;52.210;21.174;2023-03-21T01:43:26;8.20;99.90
18408;DHT22;9330;52.210;21.174;2023-03-21T01:46:28;8.10;99.90
18408;DHT22;9330;52.210;21.174;2023-03-21T01:48:58;8.10;99.90
18408;DHT22;9330;52.210;21.174;2023-03-21T01:51:28;8.10;99.90
18408;DHT22;9330;52.210;21.174;2023-03-21T01:53:56;8.20;99.90
18408;DHT22;9330;52.210;21.174;2023-03-21T01:56:28;8.10;99.90
18408;DHT22;9330;52.210;21.174;2023-03-21T01:59:00;8.10;99.90
18408;DHT22;9330;52.210;21.174;2023-03-21T02:01:31;8.20;99.90
18408;DHT22;9330;52.210;21.174;2023-03-21T02:04:00;8.00;99.90
18408;DHT22;9330;52.210;21.174;2023-03-21T02:06:32;8.00;99.90
18408;DHT22;9330;52.210;21.174;2023-03-21T02:09:05;8.10;99.90
18408;DHT22;9330;52.210;21.174;2023-03-21T02:11:34;8.00;99.90
18408;DHT22;9330;52.210;21.174;2023-03-21T02:14:04;8.00;99.90
18408;DHT22;9330;52.210;21.174;2023-03-21T02:16:43;7.90;99.90
18408;DHT22;9330;52.210;21.174;2023-03-21T02:19:38;8.00;99.90
18408;DHT22;9330;52.210;21.174;2023-03-21T02:22:44;8.00;99.90
18408;DHT22;9330;52.210;21.174;2023-03-21T02:25:44;7.90;99.90
18408;DHT22;9330;52.210;21.174;2023-03-21T02:28:21;7.80;99.90
18408;DHT22;9330;52.210;21.174;2023-03-21T02:31:09;8.10;99.90
18408;DHT22;9330;52.210;21.174;2023-03-21T02:36:57;7.80;99.90
18408;DHT22;9330;52.210;21.174;2023-03-21T02:39:28;7.80;99.90
18408;DHT22;9330;52.210;21.174;2023-03-21T02:42:04;7.90;99.90
18408;DHT22;9330;52.210;21.174;2023-03-21T02:44:38;7.80;99.90
18408;DHT22;9330;52.210;21.174;2023-03-21T02:47:10;7.80;99.90
18408;DHT22;9330;52.210;21.174;2023-03-21T02:49:43;7.80;99.90
18408;DHT22;9330;52.210;21.174;2023-03-21T02:52:16;7.80;99.90
18408;DHT22;9330;52.210;21.174;2023-03-21T02:54:45;7.80;99.90
18408;DHT22;9330;52.210;21.174;2023-03-21T02:57:14;7.80;99.90
18408;DHT22;9330;52.210;21.174;2023-03-21T02:59:42;7.80;99.90
18408;DHT22;9330;52.210;21.174;2023-03-21T03:02:10;7.90;99.90
18408;DHT22;9330;52.210;21.174;2023-03-21T03:04:37;7.80;99.90
18408;DHT22;9330;52.210;21.174;2023-03-21T03:07:16;7.80;99.90
18408;DHT22;9330;52.210;21.174;2023-03-21T03:10:00;7.90;99.90
18408;DHT22;9330;52.210;21.174;2023-03-21T03:12:34;7.90;99.90
18408;DHT22;9330;52.210;21.174;2023-03-21T03:15:11;7.70;99.90
18408;DHT22;9330;52.210;21.174;2023-03-21T03:17:49;7.80;99.90
18408;DHT22;9330;52.210;21.174;2023-03-21T03:20:26;7.80;99.90
18408;DHT22;9330;52.210;21.174;2023-03-21T03:23:04;7.80;99.90
18408;DHT22;9330;52.210;21.174;2023-03-21T03:25:38;7.90;99.90
18408;DHT22;9330;52.210;21.174;2023-03-21T03:28:07;7.80;99.90
18408;DHT22;9330;52.210;21.174;2023-03-21T03:30:36;7.80;99.90
18408;DHT22;9330;52.210;21.174;2023-03-21T03:33:05;7.90;99.90
18408;DHT22;9330;52.210;21.174;2023-03-21T03:35:33;7.80;99.90
18408;DHT22;9330;52.210;21.174;2023-03-21T03:38:04;7.80;99.90
18408;DHT22;9330;52.210;21.174;2023-03-21T03:40:36;7.80;99.90
18408;DHT22;9330;52.210;21.174;2023-03-21T03:43:09;7.80;99.90
18408;DHT22;9330;52.210;21.174;2023-03-21T03:45:41;7.80;99.90
18408;DHT22;9330;52.210;21.174;2023-03-21T03:48:16;7.80;99.90
18408;DHT22;9330;52.210;21.174;2023-03-21T03:50:49;7.80;99.90
18408;DHT22;9330;52.210;21.174;2023-03-21T03:53:22;7.80;99.90
18408;DHT22;9330;52.210;21.174;2023-03-21T03:55:50;7.70;99.90
18408;DHT22;9330;52.210;21.174;2023-03-21T03:58:18;7.80;99.90
18408;DHT22;9330;52.210;21.174;2023-03-21T04:00:46;7.70;99.90
18408;DHT22;9330;52.210;21.174;2023-03-21T04:03:13;7.70;99.90
18408;DHT22;9330;52.210;21.174;2023-03-21T04:05:41;7.80;99.90
18408;DHT22;9330;52.210;21.174;2023-03-21T04:08:11;7.90;99.90
18408;DHT22;9330;52.210;21.174;2023-03-21T04:10:39;7.70;99.90
18408;DHT22;9330;52.210;21.174;2023-03-21T04:13:06;7.70;99.90
18408;DHT22;9330;52.210;21.174;2023-03-21T04:15:33;7.70;99.90
18408;DHT22;9330;52.210;21.174;2023-03-21T04:18:01;7.90;99.90
18408;DHT22;9330;52.210;21.174;2023-03-21T04:20:28;7.70;99.90
18408;DHT22;9330;52.210;21.174;2023-03-21T04:22:55;7.70;99.90
18408;DHT22;9330;52.210;21.174;2023-03-21T04:25:22;7.70;99.90
18408;DHT22;9330;52.210;21.174;2023-03-21T04:27:51;7.70;99.90
18408;DHT22;9330;52.210;21.174;2023-03-21T04:30:17;7.70;99.90
18408;DHT22;9330;52.210;21.174;2023-03-21T04:32:44;7.70;99.90
18408;DHT22;9330;52.210;21.174;2023-03-21T04:35:22;7.70;99.90
18408;DHT22;9330;52.210;21.174;2023-03-21T04:37:49;7.70;99.90
18408;DHT22;9330;52.210;21.174;2023-03-21T04:40:16;7.70;99.90
18408;DHT22;9330;52.210;21.174;2023-03-21T04:42:46;7.70;99.90
18408;DHT22;9330;52.210;21.174;2023-03-21T04:45:15;7.70;99.90
18408;DHT22;9330;52.210;21.174;2023-03-21T04:47:42;7.60;99.90
18408;DHT22;9330;52.210;21.174;2023-03-21T04:50:10;7.80;99.90
18408;DHT22;9330;52.210;21.174;2023-03-21T04:52:37;7.60;99.90
18408;DHT22;9330;52.210;21.174;2023-03-21T04:55:05;7.60;99.90
18408;DHT22;9330;52.210;21.174;2023-03-21T04:57:34;7.60;99.90
18408;DHT22;9330;52.210;21.174;2023-03-21T05:00:03;7.80;99.90
18408;DHT22;9330;52.210;21.174;2023-03-21T05:02:33;7.60;99.90
18408;DHT22;9330;52.210;21.174;2023-03-21T05:05:00;7.70;99.90
18408;DHT22;9330;52.210;21.174;2023-03-21T05:07:27;7.70;99.90
18408;DHT22;9330;52.210;21.174;2023-03-21T05:09:55;7.70;99.90
18408;DHT22;9330;52.210;21.174;2023-03-21T05:12:22;7.60;99.90
18408;DHT22;9330;52.210;21.174;2023-03-21T05:14:50;7.60;99.90
18408;DHT22;9330;52.210;21.174;2023-03-21T05:17:17;7.60;99.90
18408;DHT22;9330;52.210;21.174;2023-03-21T05:19:49;7.70;99.90
18408;DHT22;9330;52.210;21.174;2023-03-21T05:22:18;7.60;99.90
18408;DHT22;9330;52.210;21.174;2023-03-21T05:24:45;7.70;99.90
18408;DHT22;9330;52.210;21.174;2023-03-21T05:27:15;7.70;99.90
18408;DHT22;9330;52.210;21.174;2023-03-21T05:29:58;7.70;99.90
18408;DHT22;9330;52.210;21.174;2023-03-21T05:32:25;7.70;99.90
18408;DHT22;9330;52.210;21.174;2023-03-21T05:34:54;7.70;99.90
18408;DHT22;9330;52.210;21.174;2023-03-21T05:37:21;7.70;99.90
18408;DHT22;9330;52.210;21.174;2023-03-21T05:39:48;7.70;99.90
18408;DHT22;9330;52.210;21.174;2023-03-21T05:42:15;7.80;99.90
18408;DHT22;9330;52.210;21.174;2023-03-21T05:44:43;7.70;99.90
18408;DHT22;9330;52.210;21.174;2023-03-21T05:47:10;7.70;99.90
18408;DHT22;9330;52.210;21.174;2023-03-21T05:49:37;7.70;99.90
18408;DHT22;9330;52.210;21.174;2023-03-21T05:52:06;7.80;99.90
18408;DHT22;9330;52.210;21.174;2023-03-21T05:54:33;7.70;99.90
18408;DHT22;9330;52.210;21.174;2023-03-21T05:57:01;7.70;99.90
18408;DHT22;9330;52.210;21.174;2023-03-21T05:59:28;7.60;99.90
18408;DHT22;9330;52.210;21.174;2023-03-21T06:01:55;7.70;99.90
18408;DHT22;9330;52.210;21.174;2023-03-21T06:04:22;7.60;99.90
18408;DHT22;9330;52.210;21.174;2023-03-21T06:06:49;7.70;99.90
18408;DHT22;9330;52.210;21.174;2023-03-21T06:09:19;7.70;99.90
18408;DHT22;9330;52.210;21.174;2023-03-21T06:11:48;7.70;99.90
18408;DHT22;9330;52.210;21.174;2023-03-21T06:14:16;7.70;99.90
18408;DHT22;9330;52.210;21.174;2023-03-21T06:16:43;7.70;99.90
18408;DHT22;9330;52.210;21.174;2023-03-21T06:19:10;7.70;99.90
18408;DHT22;9330;52.210;21.174;2023-03-21T06:21:38;7.70;99.90
18408;DHT22;9330;52.210;21.174;2023-03-21T06:24:05;7.60;99.90
18408;DHT22;9330;52.210;21.174;2023-03-21T06:26:33;7.70;99.90
18408;DHT22;9330;52.210;21.174;2023-03-21T06:29:00;7.70;99.90
18408;DHT22;9330;52.210;21.174;2023-03-21T06:31:27;7.80;99.90
18408;DHT22;9330;52.210;21.174;2023-03-21T06:33:54;7.70;99.90
18408;DHT22;9330;52.210;21.174;2023-03-21T06:36:21;7.60;99.90
18408;DHT22;9330;52.210;21.174;2023-03-21T06:38:47;7.60;99.90
18408;DHT22;9330;52.210;21.174;2023-03-21T06:41:14;7.60;99.90
18408;DHT22;9330;52.210;21.174;2023-03-21T06:43:43;7.60;99.90
18408;DHT22;9330;52.210;21.174;2023-03-21T06:46:10;7.70;99.90
18408;DHT22;9330;52.210;21.174;2023-03-21T06:48:37;7.70;99.90
18408;DHT22;9330;52.210;21.174;2023-03-21T06:51:09;7.70;99.90
18408;DHT22;9330;52.210;21.174;2023-03-21T06:53:37;7.70;99.90
18408;DHT22;9330;52.210;21.174;2023-03-21T06:56:06;7.70;99.90
18408;DHT22;9330;52.210;21.174;2023-03-21T06:58:33;7.70;99.90
18408;DHT22;9330;52.210;21.174;2023-03-21T07:01:02;7.70;99.90
18408;DHT22;9330;52.210;21.174;2023-03-21T07:03:29;7.70;99.90
18408;DHT22;9330;52.210;21.174;2023-03-21T07:05:57;7.80;99.90
18408;DHT22;9330;52.210;21.174;2023-03-21T07:08:24;7.80;99.90
18408;DHT22;9330;52.210;21.174;2023-03-21T07:10:55;7.80;99.90
18408;DHT22;9330;52.210;21.174;2023-03-21T07:13:23;7.80;99.90
18408;DHT22;9330;52.210;21.174;2023-03-21T07:15:51;7.90;99.90
18408;DHT22;9330;52.210;21.174;2023-03-21T07:18:20;7.80;99.90
18408;DHT22;9330;52.210;21.174;2023-03-21T07:20:48;7.90;99.90
18408;DHT22;9330;52.210;21.174;2023-03-21T07:23:16;7.80;99.90
18408;DHT22;9330;52.210;21.174;2023-03-21T07:25:43;7.70;99.90
18408;DHT22;9330;52.210;21.174;2023-03-21T07:28:10;8.00;99.90
18408;DHT22;9330;52.210;21.174;2023-03-21T07:30:37;7.90;99.90
18408;DHT22;9330;52.210;21.174;2023-03-21T07:33:04;7.90;99.90
18408;DHT22;9330;52.210;21.174;2023-03-21T07:35:33;8.00;99.90
18408;DHT22;9330;52.210;21.174;2023-03-21T07:38:01;7.90;99.90
18408;DHT22;9330;52.210;21.174;2023-03-21T07:40:28;8.00;99.90
18408;DHT22;9330;52.210;21.174;2023-03-21T07:42:55;8.10;99.90
18408;DHT22;9330;52.210;21.174;2023-03-21T07:45:22;7.90;99.90
18408;DHT22;9330;52.210;21.174;2023-03-21T07:47:51;7.90;99.90
18408;DHT22;9330;52.210;21.174;2023-03-21T07:50:18;7.90;99.90
18408;DHT22;9330;52.210;21.174;2023-03-21T07:52:47;8.10;99.90
18408;DHT22;9330;52.210;21.174;2023-03-21T07:55:14;7.90;99.90
18408;DHT22;9330;52.210;21.174;2023-03-21T07:57:42;8.00;99.90
18408;DHT22;9330;52.210;21.174;2023-03-21T08:00:10;8.10;99.90
18408;DHT22;9330;52.210;21.174;2023-03-21T08:02:38;8.10;99.90
18408;DHT22;9330;52.210;21.174;2023-03-21T08:05:05;8.10;99.90
18408;DHT22;9330;52.210;21.174;2023-03-21T08:07:32;8.20;99.90
18408;DHT22;9330;52.210;21.174;2023-03-21T08:10:01;8.30;99.90
18408;DHT22;9330;52.210;21.174;2023-03-21T08:12:28;8.40;99.90
18408;DHT22;9330;52.210;21.174;2023-03-21T08:14:55;8.60;99.90
18408;DHT22;9330;52.210;21.174;2023-03-21T08:17:22;8.60;99.90
18408;DHT22;9330;52.210;21.174;2023-03-21T08:19:49;8.50;99.90
18408;DHT22;9330;52.210;21.174;2023-03-21T08:22:16;8.60;99.90
18408;DHT22;9330;52.210;21.174;2023-03-21T08:24:43;8.70;99.90
18408;DHT22;9330;52.210;21.174;2023-03-21T08:27:11;8.70;99.90
18408;DHT22;9330;52.210;21.174;2023-03-21T08:29:38;8.70;99.90
18408;DHT22;9330;52.210;21.174;2023-03-21T08:32:08;8.70;99.90
18408;DHT22;9330;52.210;21.174;2023-03-21T08:34:35;8.60;99.90
18408;DHT22;9330;52.210;21.174;2023-03-21T08:37:05;8.70;99.90
18408;DHT22;9330;52.210;21.174;2023-03-21T08:39:34;8.70;99.90
18408;DHT22;9330;52.210;21.174;2023-03-21T08:42:02;8.80;99.90
18408;DHT22;9330;52.210;21.174;2023-03-21T08:44:32;8.80;99.90
18408;DHT22;9330;52.210;21.174;2023-03-21T08:46:59;8.90;99.90
18408;DHT22;9330;52.210;21.174;2023-03-21T08:49:26;8.90;99.90
18408;DHT22;9330;52.210;21.174;2023-03-21T08:51:54;8.80;99.90
18408;DHT22;9330;52.210;21.174;2023-03-21T08:54:22;9.00;99.90
18408;DHT22;9330;52.210;21.174;2023-03-21T08:56:49;9.10;99.90
18408;DHT22;9330;52.210;21.174;2023-03-21T08:59:16;9.00;99.90
18408;DHT22;9330;52.210;21.174;2023-03-21T09:01:50;9.30;99.90
18408;DHT22;9330;52.210;21.174;2023-03-21T09:04:18;9.40;99.90
18408;DHT22;9330;52.210;21.174;2023-03-21T09:06:47;9.50;99.90
18408;DHT22;9330;52.210;21.174;2023-03-21T09:09:14;9.40;99.90
18408;DHT22;9330;52.210;21.174;2023-03-21T09:11:42;9.40;99.90
18408;DHT22;9330;52.210;21.174;2023-03-21T09:14:10;9.50;99.90
18408;DHT22;9330;52.210;21.174;2023-03-21T09:16:37;9.60;99.90
18408;DHT22;9330;52.210;21.174;2023-03-21T09:19:05;9.60;99.90
18408;DHT22;9330;52.210;21.174;2023-03-21T09:21:33;9.60;99.90
18408;DHT22;9330;52.210;21.174;2023-03-21T09:24:01;9.60;99.90
18408;DHT22;9330;52.210;21.174;2023-03-21T09:26:30;9.40;99.90
18408;DHT22;9330;52.210;21.174;2023-03-21T09:28:57;9.40;99.90
18408;DHT22;9330;52.210;21.174;2023-03-21T09:31:25;9.30;99.90
18408;DHT22;9330;52.210;21.174;2023-03-21T09:33:53;9.30;99.90
18408;DHT22;9330;52.210;21.174;2023-03-21T09:36:22;9.30;99.90
18408;DHT22;9330;52.210;21.174;2023-03-21T09:38:51;9.20;99.90
18408;DHT22;9330;52.210;21.174;2023-03-21T09:41:35;9.30;99.90
18408;DHT22;9330;52.210;21.174;2023-03-21T09:44:14;9.20;99.90
18408;DHT22;9330;52.210;21.174;2023-03-21T09:46:47;9.20;99.90
18408;DHT22;9330;52.210;21.174;2023-03-21T09:49:20;9.10;99.90
18408;DHT22;9330;52.210;21.174;2023-03-21T09:51:53;9.10;99.90
18408;DHT22;9330;52.210;21.174;2023-03-21T09:54:24;9.20;99.90
18408;DHT22;9330;52.210;21.174;2023-03-21T09:56:53;9.10;99.90
18408;DHT22;9330;52.210;21.174;2023-03-21T09:59:26;9.20;99.90
18408;DHT22;9330;52.210;21.174;2023-03-21T10:01:54;9.00;99.90
18408;DHT22;9330;52.210;21.174;2023-03-21T10:04:23;9.20;99.90
18408;DHT22;9330;52.210;21.174;2023-03-21T10:06:58;9.10;99.90
18408;DHT22;9330;52.210;21.174;2023-03-21T10:09:27;9.00;99.90
18408;DHT22;9330;52.210;21.174;2023-03-21T10:12:00;9.00;99.90
18408;DHT22;9330;52.210;21.174;2023-03-21T10:14:29;9.00;99.90
18408;DHT22;9330;52.210;21.174;2023-03-21T10:17:00;9.00;99.90
18408;DHT22;9330;52.210;21.174;2023-03-21T10:19:28;9.10;99.90
18408;DHT22;9330;52.210;21.174;2023-03-21T10:21:56;8.90;99.90
18408;DHT22;9330;52.210;21.174;2023-03-21T10:24:25;9.00;99.90
18408;DHT22;9330;52.210;21.174;2023-03-21T10:26:57;9.10;99.90
18408;DHT22;9330;52.210;21.174;2023-03-21T10:29:29;9.10;99.90
18408;DHT22;9330;52.210;21.174;2023-03-21T10:31:57;9.20;99.90
18408;DHT22;9330;52.210;21.174;2023-03-21T10:34:30;9.20;99.90
18408;DHT22;9330;52.210;21.174;2023-03-21T10:37:00;9.20;99.90
18408;DHT22;9330;52.210;21.174;2023-03-21T10:39:32;9.30;99.90
18408;DHT22;9330;52.210;21.174;2023-03-21T10:42:00;9.20;99.90
18408;DHT22;9330;52.210;21.174;2023-03-21T10:44:28;9.20;99.90
18408;DHT22;9330;52.210;21.174;2023-03-21T10:46:57;9.20;99.90
18408;DHT22;9330;52.210;21.174;2023-03-21T10:49:24;9.10;99.90
18408;DHT22;9330;52.210;21.174;2023-03-21T10:51:54;9.10;99.90
18408;DHT22;9330;52.210;21.174;2023-03-21T10:54:27;9.00;99.90
18408;DHT22;9330;52.210;21.174;2023-03-21T10:56:57;8.90;99.90
18408;DHT22;9330;52.210;21.174;2023-03-21T10:59:27;8.90;99.90
18408;DHT22;9330;52.210;21.174;2023-03-21T11:01:55;8.90;99.90
18408;DHT22;9330;52.210;21.174;2023-03-21T11:04:25;8.90;99.90
18408;DHT22;9330;52.210;21.174;2023-03-21T11:06:57;8.90;99.90
18408;DHT22;9330;52.210;21.174;2023-03-21T11:09:43;9.00;99.90
18408;DHT22;9330;52.210;21.174;2023-03-21T11:12:12;8.90;99.90
18408;DHT22;9330;52.210;21.174;2023-03-21T11:14:42;8.70;99.90
18408;DHT22;9330;52.210;21.174;2023-03-21T11:17:28;8.70;99.90
18408;DHT22;9330;52.210;21.174;2023-03-21T11:19:58;8.70;99.90
18408;DHT22;9330;52.210;21.174;2023-03-21T11:22:28;8.70;99.90
18408;DHT22;9330;52.210;21.174;2023-03-21T11:24:59;8.80;99.90
18408;DHT22;9330;52.210;21.174;2023-03-21T11:27:27;9.00;99.90
18408;DHT22;9330;52.210;21.174;2023-03-21T11:29:56;8.80;99.90
18408;DHT22;9330;52.210;21.174;2023-03-21T11:32:25;8.90;99.90
18408;DHT22;9330;52.210;21.174;2023-03-21T11:34:56;8.90;99.90
18408;DHT22;9330;52.210;21.174;2023-03-21T11:37:26;9.10;99.90
18408;DHT22;9330;52.210;21.174;2023-03-21T11:40:04;9.20;99.90
18408;DHT22;9330;52.210;21.174;2023-03-21T11:42:40;9.20;99.90
18408;DHT22;9330;52.210;21.174;2023-03-21T11:45:13;9.30;99.90
18408;DHT22;9330;52.210;21.174;2023-03-21T11:47:40;9.30;99.90
18408;DHT22;9330;52.210;21.174;2023-03-21T11:50:16;9.30;99.90
18408;DHT22;9330;52.210;21.174;2023-03-21T11:52:52;9.30;99.90
18408;DHT22;9330;52.210;21.174;2023-03-21T11:55:38;9.50;99.90
18408;DHT22;9330;52.210;21.174;2023-03-21T11:58:25;10.20;99.90
18408;DHT22;9330;52.210;21.174;2023-03-21T12:01:02;10.50;99.90
18408;DHT22;9330;52.210;21.174;2023-03-21T12:03:54;10.90;99.90
18408;DHT22;9330;52.210;21.174;2023-03-21T12:06:27;10.80;99.90
18408;DHT22;9330;52.210;21.174;2023-03-21T12:09:18;10.80;99.90
18408;DHT22;9330;52.210;21.174;2023-03-21T12:11:57;10.70;99.90
18408;DHT22;9330;52.210;21.174;2023-03-21T12:14:31;10.50;99.90
18408;DHT22;9330;52.210;21.174;2023-03-21T12:17:05;10.60;99.90
18408;DHT22;9330;52.210;21.174;2023-03-21T12:22:40;10.60;99.90
18408;DHT22;9330;52.210;21.174;2023-03-21T12:25:14;10.60;99.90
18408;DHT22;9330;52.210;21.174;2023-03-21T12:27:51;10.60;99.90
18408;DHT22;9330;52.210;21.174;2023-03-21T12:30:32;10.60;99.90
18408;DHT22;9330;52.210;21.174;2023-03-21T12:33:22;10.50;99.90
18408;DHT22;9330;52.210;21.174;2023-03-21T12:36:03;10.50;99.90
18408;DHT22;9330;52.210;21.174;2023-03-21T12:38:38;10.50;99.90
18408;DHT22;9330;52.210;21.174;2023-03-21T12:41:22;10.40;99.90
18408;DHT22;9330;52.210;21.174;2023-03-21T12:43:55;10.40;99.90
18408;DHT22;9330;52.210;21.174;2023-03-21T12:46:28;10.40;99.90
18408;DHT22;9330;52.210;21.174;2023-03-21T12:49:00;10.40;99.90
18408;DHT22;9330;52.210;21.174;2023-03-21T12:51:30;10.40;99.90
18408;DHT22;9330;52.210;21.174;2023-03-21T12:54:04;10.40;99.90
18408;DHT22;9330;52.210;21.174;2023-03-21T12:56:36;10.40;99.90
18408;DHT22;9330;52.210;21.174;2023-03-21T12:59:13;10.40;99.90
18408;DHT22;9330;52.210;21.174;2023-03-21T13:01:42;10.20;99.90
18408;DHT22;9330;52.210;21.174;2023-03-21T13:04:27;10.20;99.90
18408;DHT22;9330;52.210;21.174;2023-03-21T13:06:58;10.20;99.90
18408;DHT22;9330;52.210;21.174;2023-03-21T13:09:30;10.20;99.90
18408;DHT22;9330;52.210;21.174;2023-03-21T13:12:05;10.10;99.90
18408;DHT22;9330;52.210;21.174;2023-03-21T13:14:40;10.20;99.90
18408;DHT22;9330;52.210;21.174;2023-03-21T13:17:17;10.30;99.90
18408;DHT22;9330;52.210;21.174;2023-03-21T13:19:47;10.20;99.90
18408;DHT22;9330;52.210;21.174;2023-03-21T13:22:21;10.30;99.90
18408;DHT22;9330;52.210;21.174;2023-03-21T13:24:56;10.20;99.90
18408;DHT22;9330;52.210;21.174;2023-03-21T13:27:27;10.30;99.90
18408;DHT22;9330;52.210;21.174;2023-03-21T13:29:59;10.30;99.90
18408;DHT22;9330;52.210;21.174;2023-03-21T13:32:30;10.30;99.90
18408;DHT22;9330;52.210;21.174;2023-03-21T13:35:00;10.30;99.90
18408;DHT22;9330;52.210;21.174;2023-03-21T13:37:31;10.20;99.90
18408;DHT22;9330;52.210;21.174;2023-03-21T13:40:02;10.30;99.90
18408;DHT22;9330;52.210;21.174;2023-03-21T13:42:34;10.30;99.90
18408;DHT22;9330;52.210;21.174;2023-03-21T13:45:08;10.30;99.90
18408;DHT22;9330;52.210;21.174;2023-03-21T13:47:41;10.50;99.90
18408;DHT22;9330;52.210;21.174;2023-03-21T13:53:29;10.30;99.90
18408;DHT22;9330;52.210;21.174;2023-03-21T13:56:22;10.30;99.90
18408;DHT22;9330;52.210;21.174;2023-03-21T13:58:52;10.30;99.90
18408;DHT22;9330;52.210;21.174;2023-03-21T14:01:30;10.20;99.90
18408;DHT22;9330;52.210;21.174;2023-03-21T14:04:01;10.20;99.90
18408;DHT22;9330;52.210;21.174;2023-03-21T14:06:33;10.10;99.90
18408;DHT22;9330;52.210;21.174;2023-03-21T14:09:01;10.00;99.90
18408;DHT22;9330;52.210;21.174;2023-03-21T14:11:30;10.00;99.90
18408;DHT22;9330;52.210;21.174;2023-03-21T14:13:59;10.00;99.90
18408;DHT22;9330;52.210;21.174;2023-03-21T14:16:29;9.90;99.90
18408;DHT22;9330;52.210;21.174;2023-03-21T14:18:59;9.90;99.90
18408;DHT22;9330;52.210;21.174;2023-03-21T14:21:28;9.90;99.90
18408;DHT22;9330;52.210;21.174;2023-03-21T14:23:57;10.00;99.90
18408;DHT22;9330;52.210;21.174;2023-03-21T14:26:26;9.90;99.90
18408;DHT22;9330;52.210;21.174;2023-03-21T14:28:54;9.90;99.90
18408;DHT22;9330;52.210;21.174;2023-03-21T14:31:21;9.80;99.90
18408;DHT22;9330;52.210;21.174;2023-03-21T14:33:52;9.90;99.90
18408;DHT22;9330;52.210;21.174;2023-03-21T14:36:24;10.00;99.90
18408;DHT22;9330;52.210;21.174;2023-03-21T14:39:04;9.90;99.90
18408;DHT22;9330;52.210;21.174;2023-03-21T14:41:33;9.90;99.90
18408;DHT22;9330;52.210;21.174;2023-03-21T14:44:17;10.00;99.90
18408;DHT22;9330;52.210;21.174;2023-03-21T14:46:49;10.20;99.90
18408;DHT22;9330;52.210;21.174;2023-03-21T14:49:25;10.00;99.90
18408;DHT22;9330;52.210;21.174;2023-03-21T14:51:54;10.10;99.90
18408;DHT22;9330;52.210;21.174;2023-03-21T14:54:21;10.10;99.90
18408;DHT22;9330;52.210;21.174;2023-03-21T14:56:51;10.00;99.90
18408;DHT22;9330;52.210;21.174;2023-03-21T14:59:21;10.10;99.90
18408;DHT22;9330;52.210;21.174;2023-03-21T15:01:50;10.00;99.90
18408;DHT22;9330;52.210;21.174;2023-03-21T15:04:17;10.00;99.90
18408;DHT22;9330;52.210;21.174;2023-03-21T15:06:53;10.00;99.90
18408;DHT22;9330;52.210;21.174;2023-03-21T15:09:24;10.00;99.90
18408;DHT22;9330;52.210;21.174;2023-03-21T15:11:53;9.90;99.90
18408;DHT22;9330;52.210;21.174;2023-03-21T15:14:24;9.80;99.90
18408;DHT22;9330;52.210;21.174;2023-03-21T15:16:53;9.90;99.90
18408;DHT22;9330;52.210;21.174;2023-03-21T15:19:26;9.90;99.90
18408;DHT22;9330;52.210;21.174;2023-03-21T15:21:59;9.80;99.90
18408;DHT22;9330;52.210;21.174;2023-03-21T15:24:31;9.80;99.90
18408;DHT22;9330;52.210;21.174;2023-03-21T15:27:01;9.90;99.90
18408;DHT22;9330;52.210;21.174;2023-03-21T15:29:28;9.80;99.90
18408;DHT22;9330;52.210;21.174;2023-03-21T15:31:55;9.90;99.90
18408;DHT22;9330;52.210;21.174;2023-03-21T15:34:26;9.80;99.90
18408;DHT22;9330;52.210;21.174;2023-03-21T15:37:00;9.80;99.90
18408;DHT22;9330;52.210;21.174;2023-03-21T15:39:28;9.80;99.90
18408;DHT22;9330;52.210;21.174;2023-03-21T15:41:58;9.80;99.90
18408;DHT22;9330;52.210;21.174;2023-03-21T15:44:26;9.60;99.90
18408;DHT22;9330;52.210;21.174;2023-03-21T15:46:54;9.70;99.90
18408;DHT22;9330;52.210;21.174;2023-03-21T15:49:25;9.80;99.90
18408;DHT22;9330;52.210;21.174;2023-03-21T15:51:57;9.80;99.90
18408;DHT22;9330;52.210;21.174;2023-03-21T15:54:28;9.80;99.90
18408;DHT22;9330;52.210;21.174;2023-03-21T15:56:57;9.80;99.90
18408;DHT22;9330;52.210;21.174;2023-03-21T15:59:30;9.80;99.90
18408;DHT22;9330;52.210;21.174;2023-03-21T16:01:58;9.70;99.90
18408;DHT22;9330;52.210;21.174;2023-03-21T16:04:25;9.60;99.90
18408;DHT22;9330;52.210;21.174;2023-03-21T16:06:58;9.60;99.90
18408;DHT22;9330;52.210;21.174;2023-03-21T16:09:26;9.50;99.90
18408;DHT22;9330;52.210;21.174;2023-03-21T16:11:54;9.50;99.90
18408;DHT22;9330;52.210;21.174;2023-03-21T16:14:22;9.50;99.90